Time;durP1;ratioP1;P1;durP2;ratioP2;P2;SDS_P1;SDS_P2;PMS_P1;PMS_P2;Temp;Humidity;BMP_temperature;BMP_pressure;BME280_temperature;BME280_humidity;BME280_pressure;Samples;Min_cycle;Max_cycle;Signal;HPM_P1;HPM_P2
2023/07/10 00:00:24;;;;;;;4.50;2.78;;;19.20;99.80;;;;;;4970519;28;20026;-79
2023/07/10 00:02:50;;;;;;;4.18;2.42;;;19.20;99.90;;;;;;4987794;28;20030;-78
2023/07/10 00:05:19;;;;;;;6.53;2.30;;;19.20;99.90;;;;;;4970252;28;20376;-79
2023/07/10 00:07:45;;;;;;;4.43;2.63;;;19.30;99.30;;;;;;4987950;28;20018;-78
2023/07/10 00:10:15;;;;;;;4.78;2.80;;;19.30;99.10;;;;;;4970169;28;20026;-79
2023/07/10 00:12:42;;;;;;;8.98;2.60;;;19.40;99.50;;;;;;4970210;28;20030;-79
2023/07/10 00:15:21;;;;;;;3.85;2.17;;;19.50;98.80;;;;;;4970407;28;20026;-79
2023/07/10 00:17:50;;;;;;;4.57;2.83;;;19.50;98.90;;;;;;4970296;28;20071;-79
2023/07/10 00:20:27;;;;;;;5.63;2.38;;;19.50;99.30;;;;;;4970054;28;20033;-79
2023/07/10 00:22:53;;;;;;;4.63;2.38;;;19.40;99.80;;;;;;4987564;28;20034;-78
2023/07/10 00:25:19;;;;;;;4.68;2.55;;;19.30;99.90;;;;;;4987432;28;20034;-79
2023/07/10 00:27:48;;;;;;;5.57;2.60;;;19.30;99.80;;;;;;4970120;28;20026;-78
2023/07/10 00:30:20;;;;;;;5.05;2.33;;;19.30;99.70;;;;;;4969993;28;20043;-79
2023/07/10 00:32:47;;;;;;;7.25;2.75;;;19.30;99.70;;;;;;4969896;28;20026;-79
2023/07/10 00:35:16;;;;;;;4.97;2.22;;;19.30;99.70;;;;;;4987371;28;20096;-79
2023/07/10 00:37:45;;;;;;;4.07;2.47;;;19.40;99.40;;;;;;4987362;28;20096;-79
2023/07/10 00:40:22;;;;;;;4.57;2.33;;;19.40;99.40;;;;;;4970016;28;20087;-79
2023/07/10 00:43:11;;;;;;;5.15;2.90;;;19.30;99.70;;;;;;4987532;28;20041;-78
2023/07/10 00:45:36;;;;;;;4.90;2.38;;;19.30;99.60;;;;;;4970750;28;20052;-78
2023/07/10 00:48:22;;;;;;;10.70;2.60;;;19.30;99.70;;;;;;4987371;28;20422;-79
2023/07/10 00:50:50;;;;;;;16.65;2.92;;;19.30;99.90;;;;;;4987344;28;20030;-77
2023/07/10 00:53:27;;;;;;;5.90;2.47;;;19.20;99.90;;;;;;4987265;28;20064;-79
2023/07/10 00:55:56;;;;;;;5.38;3.20;;;19.20;99.90;;;;;;4987326;28;20499;-79
2023/07/10 00:58:29;;;;;;;6.13;2.78;;;19.20;99.90;;;;;;4987100;28;20038;-79
2023/07/10 01:01:16;;;;;;;8.55;2.65;;;19.20;99.90;;;;;;4987152;28;20026;-79
2023/07/10 01:03:43;;;;;;;5.65;2.45;;;19.10;99.90;;;;;;4987044;28;20150;-79
2023/07/10 01:06:22;;;;;;;4.85;2.50;;;19.10;99.90;;;;;;4969981;28;20031;-78
2023/07/10 01:09:02;;;;;;;4.43;2.70;;;19.10;99.90;;;;;;4990527;28;20030;-79
2023/07/10 01:11:29;;;;;;;5.15;2.38;;;19.00;99.90;;;;;;4990513;28;20032;-79
2023/07/10 01:13:56;;;;;;;7.15;2.47;;;19.00;99.90;;;;;;4972929;28;20041;-79
2023/07/10 01:16:24;;;;;;;8.30;2.58;;;19.00;99.90;;;;;;4972857;28;20718;-79
2023/07/10 01:18:50;;;;;;;4.32;2.70;;;19.00;99.90;;;;;;4972873;28;20039;-79
2023/07/10 01:21:27;;;;;;;5.70;2.75;;;19.00;99.90;;;;;;4990359;28;20019;-79
2023/07/10 01:23:54;;;;;;;7.55;2.70;;;19.00;99.90;;;;;;4973011;28;20041;-79
2023/07/10 01:26:20;;;;;;;4.65;3.05;;;19.00;99.90;;;;;;4990191;28;20039;-79
2023/07/10 01:28:46;;;;;;;4.55;2.42;;;19.00;99.90;;;;;;4990319;28;20113;-79
2023/07/10 01:31:15;;;;;;;3.78;2.50;;;19.10;99.90;;;;;;4973012;28;20037;-79
2023/07/10 01:33:49;;;;;;;5.05;2.70;;;19.10;99.90;;;;;;4990193;28;20027;-79
2023/07/10 01:36:17;;;;;;;4.45;2.60;;;19.10;99.90;;;;;;4972507;28;20034;-79
2023/07/10 01:38:48;;;;;;;4.78;2.78;;;19.10;99.90;;;;;;4972621;28;20506;-79
2023/07/10 01:41:39;;;;;;;4.68;2.80;;;19.10;99.90;;;;;;4990164;28;20034;-79
2023/07/10 01:44:28;;;;;;;8.02;2.95;;;19.10;99.90;;;;;;4972345;28;20124;-79
2023/07/10 01:46:55;;;;;;;13.02;2.60;;;19.10;99.90;;;;;;4989994;28;20018;-79
2023/07/10 01:49:46;;;;;;;6.43;2.55;;;19.00;99.90;;;;;;4972434;28;20482;-80
2023/07/10 01:52:14;;;;;;;3.67;2.30;;;18.90;99.90;;;;;;4989616;28;20046;-77
2023/07/10 01:54:40;;;;;;;6.88;2.30;;;18.90;99.90;;;;;;4989761;28;20037;-79
2023/07/10 01:57:07;;;;;;;3.85;2.50;;;18.90;99.90;;;;;;4989998;28;20034;-79
2023/07/10 01:59:33;;;;;;;3.22;2.30;;;18.90;99.90;;;;;;4972287;28;20191;-79
2023/07/10 02:01:59;;;;;;;5.35;2.67;;;18.90;99.90;;;;;;4972465;28;20116;-79
2023/07/10 02:04:26;;;;;;;7.47;2.45;;;18.90;99.90;;;;;;4989653;28;20038;-79
2023/07/10 02:06:54;;;;;;;6.28;2.63;;;18.90;99.90;;;;;;4972245;28;20415;-78
2023/07/10 02:09:22;;;;;;;5.03;2.60;;;18.90;99.90;;;;;;4972438;28;20810;-78
2023/07/10 02:11:48;;;;;;;6.10;2.60;;;18.90;99.90;;;;;;4990568;28;20030;-79
2023/07/10 02:14:14;;;;;;;4.30;2.47;;;18.80;99.90;;;;;;4990135;28;20375;-79
2023/07/10 02:16:39;;;;;;;4.65;2.75;;;18.80;99.90;;;;;;4972320;28;20026;-78
2023/07/10 02:19:05;;;;;;;4.30;2.65;;;18.70;99.90;;;;;;4971341;28;20046;-79
2023/07/10 02:21:32;;;;;;;4.63;3.08;;;18.70;99.90;;;;;;4989562;28;20122;-78
2023/07/10 02:23:58;;;;;;;4.60;2.90;;;18.70;99.90;;;;;;4971822;28;20423;-79
2023/07/10 02:26:24;;;;;;;5.13;2.47;;;18.70;99.90;;;;;;4971735;28;20027;-78
2023/07/10 02:28:50;;;;;;;5.28;2.70;;;18.60;99.90;;;;;;4971825;28;20095;-78
2023/07/10 02:31:15;;;;;;;4.55;2.95;;;18.60;99.90;;;;;;4971822;28;20034;-79
2023/07/10 02:33:41;;;;;;;2.85;2.40;;;18.60;99.90;;;;;;4989374;28;20045;-79
2023/07/10 02:36:06;;;;;;;8.13;3.58;;;18.60;99.90;;;;;;4971601;28;20034;-79
2023/07/10 02:38:32;;;;;;;3.88;2.80;;;18.50;99.90;;;;;;4989120;28;20047;-79
2023/07/10 02:40:59;;;;;;;5.85;3.25;;;18.50;99.90;;;;;;4971678;28;20035;-79
2023/07/10 02:43:24;;;;;;;14.73;3.13;;;18.50;99.90;;;;;;4973232;28;20026;-79
2023/07/10 02:45:50;;;;;;;4.78;2.65;;;18.50;99.90;;;;;;4971628;28;20129;-80
2023/07/10 02:48:16;;;;;;;5.40;2.83;;;18.50;99.90;;;;;;4971616;28;20068;-79
2023/07/10 02:50:43;;;;;;;3.45;2.25;;;18.60;99.90;;;;;;4971534;28;20030;-80
2023/07/10 02:53:09;;;;;;;6.07;2.80;;;18.60;99.90;;;;;;4971380;28;20023;-79
2023/07/10 02:55:34;;;;;;;5.82;3.08;;;18.60;99.90;;;;;;4988794;28;20524;-80
2023/07/10 02:58:01;;;;;;;10.45;3.03;;;18.60;99.90;;;;;;4971654;28;20076;-80
2023/07/10 03:00:27;;;;;;;4.72;2.92;;;18.60;99.90;;;;;;4971536;28;20395;-79
2023/07/10 03:02:54;;;;;;;4.82;2.70;;;18.70;99.90;;;;;;4989130;28;20491;-79
2023/07/10 03:05:21;;;;;;;10.40;2.65;;;18.70;99.90;;;;;;4971204;28;20034;-79
2023/07/10 03:07:46;;;;;;;6.68;3.03;;;18.70;99.90;;;;;;4988985;28;20498;-80
2023/07/10 03:10:12;;;;;;;5.35;3.25;;;18.80;99.90;;;;;;4971212;28;20065;-79
2023/07/10 03:12:37;;;;;;;7.13;2.42;;;18.80;99.90;;;;;;4988653;28;20030;-79
2023/07/10 03:15:05;;;;;;;7.20;2.92;;;18.90;99.90;;;;;;4971233;28;20030;-80
2023/07/10 03:17:31;;;;;;;5.15;3.03;;;18.90;99.90;;;;;;4988669;28;20060;-80
2023/07/10 03:19:57;;;;;;;8.05;2.58;;;19.00;99.90;;;;;;4988648;28;20054;-79
2023/07/10 03:22:22;;;;;;;5.38;2.97;;;19.00;99.90;;;;;;4988521;28;20068;-79
2023/07/10 03:24:48;;;;;;;5.68;2.80;;;19.00;99.90;;;;;;4988571;28;20041;-79
2023/07/10 03:27:13;;;;;;;5.43;2.95;;;19.00;99.90;;;;;;4988612;28;20046;-80
2023/07/10 03:29:39;;;;;;;5.07;2.75;;;19.10;99.90;;;;;;4970295;28;20031;-79
2023/07/10 03:32:07;;;;;;;5.28;2.92;;;19.10;99.90;;;;;;4970646;28;20333;-80
2023/07/10 03:34:32;;;;;;;4.35;2.60;;;19.10;99.90;;;;;;4970945;28;20038;-80
2023/07/10 03:36:58;;;;;;;4.32;2.45;;;19.20;99.90;;;;;;4970808;28;20030;-79
2023/07/10 03:39:24;;;;;;;3.75;2.45;;;19.30;99.90;;;;;;4970575;28;20061;-79
2023/07/10 03:41:49;;;;;;;5.55;2.97;;;19.40;99.90;;;;;;4970859;28;20034;-80
2023/07/10 03:44:15;;;;;;;7.43;2.97;;;19.40;99.90;;;;;;4988062;28;20670;-80
2023/07/10 03:46:41;;;;;;;5.22;2.58;;;19.50;99.90;;;;;;4988374;28;20034;-80
2023/07/10 03:49:06;;;;;;;5.95;2.70;;;19.60;99.90;;;;;;4970596;28;20027;-80
2023/07/10 03:51:32;;;;;;;7.57;3.10;;;19.60;99.90;;;;;;4970541;28;20522;-79
2023/07/10 03:53:58;;;;;;;5.97;2.67;;;19.80;99.90;;;;;;4970493;28;20069;-80
2023/07/10 03:56:24;;;;;;;6.50;3.00;;;19.90;99.90;;;;;;4987950;28;20517;-80
2023/07/10 03:58:49;;;;;;;6.93;2.75;;;20.00;99.90;;;;;;4988245;28;20037;-80
2023/07/10 04:01:16;;;;;;;4.85;3.00;;;20.10;99.90;;;;;;4987981;28;20034;-79
2023/07/10 04:03:41;;;;;;;5.63;2.72;;;20.20;99.90;;;;;;4988024;28;20486;-80
2023/07/10 04:06:11;;;;;;;5.55;2.80;;;20.30;99.90;;;;;;4970288;28;20038;-80
2023/07/10 04:08:40;;;;;;;4.90;2.92;;;20.50;99.90;;;;;;4970273;28;20109;-80
2023/07/10 04:11:10;;;;;;;8.05;3.15;;;20.70;99.30;;;;;;4987934;28;20036;-80
2023/07/10 04:13:35;;;;;;;5.93;3.13;;;20.80;99.10;;;;;;4970490;28;20034;-80
2023/07/10 04:16:02;;;;;;;4.05;2.75;;;20.90;99.90;;;;;;4987644;28;20045;-80
2023/07/10 04:18:36;;;;;;;8.68;3.78;;;21.00;99.60;;;;;;4987664;28;20034;-81
2023/07/10 04:21:04;;;;;;;3.78;2.35;;;21.20;98.00;;;;;;4970438;28;20080;-79
2023/07/10 04:23:30;;;;;;;5.22;3.13;;;21.30;97.30;;;;;;4970162;28;20023;-80
2023/07/10 04:25:56;;;;;;;5.57;2.83;;;21.40;96.90;;;;;;4987475;28;20677;-79
2023/07/10 04:28:22;;;;;;;6.10;2.03;;;21.50;96.20;;;;;;4987641;28;20080;-80
2023/07/10 04:30:48;;;;;;;7.38;2.70;;;21.60;95.50;;;;;;4970100;28;20026;-79
2023/07/10 04:33:15;;;;;;;5.15;2.72;;;21.70;95.10;;;;;;4987381;28;20042;-78
2023/07/10 04:35:42;;;;;;;6.15;2.17;;;21.90;95.20;;;;;;4969993;28;20022;-80
2023/07/10 04:38:08;;;;;;;5.85;2.85;;;22.00;94.40;;;;;;4969378;28;20050;-78
2023/07/10 04:40:34;;;;;;;4.25;2.78;;;22.20;94.80;;;;;;4987602;28;20115;-79
2023/07/10 04:43:02;;;;;;;4.60;2.97;;;22.30;94.70;;;;;;4987071;28;20034;-79
2023/07/10 04:45:28;;;;;;;5.28;2.65;;;22.50;93.60;;;;;;4987022;28;20087;-79
2023/07/10 04:47:54;;;;;;;7.35;2.80;;;22.70;92.70;;;;;;4987115;28;20437;-79
2023/07/10 04:50:21;;;;;;;5.35;2.88;;;22.90;92.10;;;;;;4987152;28;20050;-80
2023/07/10 04:52:47;;;;;;;5.30;3.03;;;23.00;91.40;;;;;;4969830;28;20096;-80
2023/07/10 04:55:13;;;;;;;5.97;2.38;;;23.20;90.40;;;;;;4969505;28;20471;-80
2023/07/10 04:57:38;;;;;;;4.78;2.55;;;23.40;89.70;;;;;;4969772;28;20034;-79
2023/07/10 05:00:05;;;;;;;5.68;3.08;;;23.50;88.10;;;;;;4987061;28;20038;-79
2023/07/10 05:02:30;;;;;;;6.00;2.28;;;23.80;86.80;;;;;;4969480;28;20026;-80
2023/07/10 05:04:56;;;;;;;4.50;2.60;;;23.90;86.00;;;;;;4969281;28;20522;-80
2023/07/10 05:07:22;;;;;;;6.60;2.88;;;24.10;85.70;;;;;;4987194;28;20080;-80
2023/07/10 05:09:47;;;;;;;10.98;3.40;;;24.30;86.10;;;;;;4969489;28;20030;-79
2023/07/10 05:12:13;;;;;;;6.60;3.33;;;24.50;85.00;;;;;;4986988;28;20066;-80
2023/07/10 05:14:39;;;;;;;26.00;3.33;;;24.70;84.30;;;;;;4969813;28;20034;-80
2023/07/10 05:17:04;;;;;;;13.02;2.67;;;24.80;81.90;;;;;;4969258;28;20048;-80
2023/07/10 05:19:32;;;;;;;7.50;3.10;;;24.80;79.30;;;;;;4969408;28;20035;-80
2023/07/10 05:21:59;;;;;;;8.00;3.33;;;25.00;78.20;;;;;;4969340;28;20516;-79
2023/07/10 05:24:25;;;;;;;4.93;3.10;;;25.10;77.90;;;;;;4986669;28;20494;-80
2023/07/10 05:26:51;;;;;;;5.47;2.80;;;25.30;77.00;;;;;;4969320;28;20525;-80
2023/07/10 05:29:17;;;;;;;4.38;2.28;;;25.50;76.60;;;;;;4969346;28;20065;-80
2023/07/10 05:31:42;;;;;;;10.02;3.25;;;25.70;76.40;;;;;;4986927;28;20057;-80
2023/07/10 05:34:08;;;;;;;7.10;2.53;;;25.90;75.90;;;;;;4986819;28;20105;-80
2023/07/10 05:36:34;;;;;;;7.43;2.67;;;26.10;74.90;;;;;;4969360;28;20439;-80
2023/07/10 05:38:59;;;;;;;10.35;2.78;;;26.20;74.60;;;;;;4969263;28;20057;-80
2023/07/10 05:41:25;;;;;;;6.93;2.85;;;26.20;75.10;;;;;;4986795;28;20034;-80
2023/07/10 05:43:51;;;;;;;8.73;3.25;;;26.30;75.80;;;;;;4987080;28;20038;-80
2023/07/10 05:46:17;;;;;;;6.85;2.83;;;26.30;75.00;;;;;;4986973;28;20030;-81
2023/07/10 05:48:43;;;;;;;3.40;2.45;;;26.40;74.50;;;;;;4969675;28;20030;-80
2023/07/10 05:51:09;;;;;;;9.65;3.38;;;26.60;74.10;;;;;;4986586;28;20555;-80
2023/07/10 05:53:34;;;;;;;4.72;2.75;;;26.70;73.40;;;;;;4987377;28;20512;-80
2023/07/10 05:56:01;;;;;;;5.82;2.92;;;27.00;72.60;;;;;;4989736;28;20072;-82
2023/07/10 05:58:28;;;;;;;7.32;2.90;;;27.20;71.20;;;;;;4989753;28;20030;-81
2023/07/10 06:00:57;;;;;;;5.78;2.97;;;27.50;69.60;;;;;;4989457;28;20113;-81
2023/07/10 06:03:23;;;;;;;4.60;2.47;;;27.90;67.80;;;;;;4989525;28;20090;-81
2023/07/10 06:05:58;;;;;;;5.20;2.67;;;28.30;67.00;;;;;;4972261;28;20069;-81
2023/07/10 06:08:25;;;;;;;8.80;2.70;;;28.90;65.60;;;;;;4989496;28;20039;-79
2023/07/10 06:10:52;;;;;;;11.55;3.40;;;29.70;63.60;;;;;;4972310;28;20022;-79
2023/07/10 06:13:18;;;;;;;6.55;3.15;;;30.90;60.70;;;;;;4972092;28;20038;-79
2023/07/10 06:15:47;;;;;;;6.22;2.40;;;31.90;58.30;;;;;;4989521;28;20030;-79
2023/07/10 06:18:14;;;;;;;10.77;2.67;;;32.70;55.60;;;;;;4989398;28;20027;-79
2023/07/10 06:20:40;;;;;;;5.15;3.05;;;33.20;52.90;;;;;;4989479;28;20058;-79
2023/07/10 06:23:06;;;;;;;5.80;2.67;;;33.80;51.30;;;;;;4989481;28;20088;-79
2023/07/10 06:25:31;;;;;;;8.38;2.05;;;34.30;48.80;;;;;;4989387;28;20038;-80
2023/07/10 06:27:57;;;;;;;11.98;2.95;;;34.90;46.70;;;;;;4989203;28;20034;-80
2023/07/10 06:30:23;;;;;;;3.83;2.47;;;35.20;47.50;;;;;;4989173;28;20079;-80
2023/07/10 06:32:50;;;;;;;6.95;2.30;;;35.70;46.20;;;;;;4989177;28;20038;-79
2023/07/10 06:35:15;;;;;;;6.82;2.40;;;36.20;44.90;;;;;;4971879;28;20068;-79
2023/07/10 06:37:42;;;;;;;7.45;3.17;;;36.30;45.00;;;;;;4971631;28;20474;-80
2023/07/10 06:40:15;;;;;;;3.80;2.10;;;36.50;44.30;;;;;;4989090;28;20026;-80
2023/07/10 06:42:42;;;;;;;6.93;2.17;;;37.00;42.40;;;;;;4989044;28;20030;-78
2023/07/10 06:45:10;;;;;;;3.90;2.45;;;36.90;42.50;;;;;;4971436;28;20407;-80
2023/07/10 06:47:44;;;;;;;5.97;2.20;;;37.10;42.40;;;;;;4988886;28;20037;-79
2023/07/10 06:50:12;;;;;;;3.80;2.25;;;37.40;41.30;;;;;;4988876;28;20053;-80
2023/07/10 06:52:40;;;;;;;4.63;2.28;;;37.40;42.20;;;;;;4988823;28;20023;-80
2023/07/10 06:55:08;;;;;;;9.35;2.75;;;37.40;40.70;;;;;;4971280;28;20035;-80
2023/07/10 06:57:34;;;;;;;6.45;2.38;;;37.60;40.70;;;;;;4971413;28;20167;-80
2023/07/10 07:00:00;;;;;;;6.35;2.42;;;37.90;40.40;;;;;;4970947;28;20031;-79
2023/07/10 07:02:26;;;;;;;5.10;2.20;;;38.10;40.50;;;;;;4988760;28;20041;-80
2023/07/10 07:04:52;;;;;;;4.20;2.20;;;38.50;39.50;;;;;;4988316;28;20049;-79
2023/07/10 07:07:17;;;;;;;7.90;2.65;;;38.60;38.60;;;;;;4971154;28;20841;-79
2023/07/10 07:09:43;;;;;;;4.75;2.63;;;38.70;38.30;;;;;;4971193;28;20037;-80
2023/07/10 07:12:10;;;;;;;4.35;2.08;;;38.70;38.70;;;;;;4988433;28;20470;-80
2023/07/10 07:14:36;;;;;;;3.88;2.38;;;39.00;38.00;;;;;;4988192;28;20026;-80
2023/07/10 07:17:04;;;;;;;4.70;2.85;;;39.10;38.10;;;;;;4970985;28;20026;-80
2023/07/10 07:19:29;;;;;;;7.30;2.63;;;39.10;37.80;;;;;;4988221;28;20212;-79
2023/07/10 07:21:55;;;;;;;4.55;2.25;;;39.30;37.60;;;;;;4970675;28;20327;-80
2023/07/10 07:24:21;;;;;;;4.50;2.00;;;39.20;38.10;;;;;;4988269;28;20038;-80
2023/07/10 07:26:46;;;;;;;4.15;2.70;;;39.50;37.10;;;;;;4988228;28;20026;-80
2023/07/10 07:29:12;;;;;;;3.55;2.13;;;39.30;37.60;;;;;;4988138;28;20137;-80
2023/07/10 07:31:39;;;;;;;3.80;2.65;;;39.40;38.20;;;;;;4970639;28;20033;-80
2023/07/10 07:34:05;;;;;;;7.05;3.78;;;39.50;37.90;;;;;;4970660;28;20029;-79
2023/07/10 07:36:34;;;;;;;4.55;2.42;;;39.40;37.60;;;;;;4988810;28;20030;-80
2023/07/10 07:39:01;;;;;;;6.70;2.92;;;39.20;38.20;;;;;;4970555;28;20057;-80
2023/07/10 07:41:26;;;;;;;3.75;2.60;;;39.10;37.20;;;;;;4988013;28;20022;-79
2023/07/10 07:43:52;;;;;;;4.75;2.30;;;39.00;38.00;;;;;;4987948;28;20483;-79
2023/07/10 07:46:17;;;;;;;7.47;2.88;;;39.30;38.10;;;;;;4970659;28;20087;-80
2023/07/10 07:48:43;;;;;;;5.80;2.70;;;39.30;38.10;;;;;;4988065;28;20398;-80
2023/07/10 07:51:09;;;;;;;5.35;2.60;;;39.50;39.00;;;;;;4970677;28;20030;-79
2023/07/10 07:53:43;;;;;;;7.40;3.15;;;39.80;39.50;;;;;;4987932;28;20023;-80
2023/07/10 07:56:09;;;;;;;6.00;3.38;;;39.70;39.50;;;;;;4987895;28;20027;-80
2023/07/10 07:58:34;;;;;;;11.30;2.95;;;39.80;39.50;;;;;;4987838;28;20031;-80
2023/07/10 08:01:00;;;;;;;9.85;3.40;;;40.00;38.90;;;;;;4988002;28;20037;-80
2023/07/10 08:03:27;;;;;;;3.53;2.70;;;40.20;37.20;;;;;;4987764;28;20022;-79
2023/07/10 08:05:53;;;;;;;10.05;2.78;;;40.00;38.30;;;;;;4988222;28;20073;-81
2023/07/10 08:08:18;;;;;;;4.75;2.90;;;40.00;38.10;;;;;;4987924;28;20105;-80
2023/07/10 08:10:47;;;;;;;6.38;2.88;;;39.90;37.10;;;;;;4987583;28;20429;-80
2023/07/10 08:13:15;;;;;;;6.57;3.28;;;39.90;37.50;;;;;;4987710;28;20445;-80
2023/07/10 08:15:41;;;;;;;9.15;3.22;;;39.90;39.60;;;;;;4987160;28;20487;-80
2023/07/10 08:18:07;;;;;;;8.18;3.95;;;39.70;39.60;;;;;;4987174;28;20096;-79
2023/07/10 08:20:33;;;;;;;8.70;3.38;;;39.70;39.90;;;;;;4987444;28;20386;-79
2023/07/10 08:22:59;;;;;;;9.35;3.28;;;40.00;37.00;;;;;;4987705;28;20034;-79
2023/07/10 08:25:25;;;;;;;4.78;3.17;;;39.90;33.80;;;;;;4987414;28;20027;-79
2023/07/10 08:27:50;;;;;;;3.95;2.80;;;39.80;34.00;;;;;;4970062;28;20593;-79
2023/07/10 08:30:16;;;;;;;5.93;3.00;;;40.00;33.80;;;;;;4987284;28;20105;-80
2023/07/10 08:32:42;;;;;;;5.95;2.42;;;40.00;35.00;;;;;;4969870;28;20065;-81
2023/07/10 08:35:08;;;;;;;4.53;3.10;;;39.60;35.50;;;;;;4987225;28;20051;-79
2023/07/10 08:37:38;;;;;;;10.38;2.92;;;39.50;35.50;;;;;;4987034;28;20137;-80
2023/07/10 08:40:06;;;;;;;7.93;3.13;;;39.40;35.60;;;;;;4987068;28;20046;-80
2023/07/10 08:42:32;;;;;;;10.52;3.13;;;39.50;35.80;;;;;;4987279;28;20051;-79
2023/07/10 08:45:00;;;;;;;6.40;2.75;;;39.40;36.20;;;;;;4987231;28;20039;-79
2023/07/10 08:47:36;;;;;;;10.43;2.92;;;39.50;35.50;;;;;;4987171;28;20496;-80
2023/07/10 08:50:28;;;;;;;4.70;2.70;;;39.30;35.50;;;;;;4987199;28;20107;-80
2023/07/10 08:53:05;;;;;;;6.47;3.20;;;39.10;35.30;;;;;;4987277;28;20101;-80
2023/07/10 08:55:36;;;;;;;8.20;3.15;;;39.00;35.60;;;;;;4969594;28;20485;-80
2023/07/10 08:58:03;;;;;;;4.45;3.03;;;38.90;36.20;;;;;;4969386;28;20023;-80
2023/07/10 09:00:37;;;;;;;5.40;3.15;;;38.80;36.30;;;;;;4987057;28;20023;-80
2023/07/10 09:03:09;;;;;;;7.88;2.85;;;39.00;36.20;;;;;;4969759;28;20084;-80
2023/07/10 09:05:37;;;;;;;5.07;2.85;;;39.20;37.40;;;;;;4969275;28;20141;-79
2023/07/10 09:08:09;;;;;;;7.70;2.72;;;39.40;37.40;;;;;;4969381;28;20019;-80
2023/07/10 09:10:40;;;;;;;8.48;2.88;;;39.70;35.70;;;;;;4986897;28;20052;-79
2023/07/10 09:13:13;;;;;;;3.60;2.83;;;40.00;35.70;;;;;;4986926;28;20045;-79
2023/07/10 09:15:49;;;;;;;6.63;3.50;;;40.00;36.50;;;;;;4986806;28;20821;-80
2023/07/10 09:18:32;;;;;;;8.25;3.45;;;40.10;35.80;;;;;;4986863;28;20034;-80
2023/07/10 09:21:00;;;;;;;7.55;2.85;;;40.10;35.10;;;;;;4986700;28;20487;-79
2023/07/10 09:23:30;;;;;;;5.57;3.00;;;40.10;35.10;;;;;;4969580;28;20062;-79
2023/07/10 09:25:58;;;;;;;6.13;3.25;;;39.80;36.40;;;;;;4986678;28;20124;-80
2023/07/10 09:28:24;;;;;;;6.53;3.45;;;39.90;35.70;;;;;;4987506;28;20395;-79
2023/07/10 09:31:07;;;;;;;3.88;2.90;;;39.90;35.70;;;;;;4990148;28;20039;-79
2023/07/10 09:33:58;;;;;;;9.90;3.20;;;40.00;36.00;;;;;;4990094;28;20026;-79
2023/07/10 09:36:23;;;;;;;7.47;3.40;;;40.00;35.40;;;;;;4989891;28;20030;-80
2023/07/10 09:38:51;;;;;;;5.03;2.92;;;39.90;36.10;;;;;;4989931;28;20134;-79
2023/07/10 09:41:23;;;;;;;4.95;3.15;;;39.90;36.80;;;;;;4972415;28;20121;-79
2023/07/10 09:43:56;;;;;;;9.43;3.25;;;40.20;36.80;;;;;;4989770;28;20030;-79
2023/07/10 09:46:27;;;;;;;7.57;3.22;;;40.30;36.70;;;;;;4989787;28;20087;-80
2023/07/10 09:48:55;;;;;;;4.82;2.65;;;40.20;35.30;;;;;;4972413;28;20031;-79
2023/07/10 09:51:22;;;;;;;5.70;3.75;;;40.20;35.50;;;;;;4989734;28;20030;-80
2023/07/10 09:53:54;;;;;;;6.82;3.55;;;40.40;35.50;;;;;;4989693;28;20022;-80
2023/07/10 09:56:35;;;;;;;10.75;3.85;;;40.30;36.50;;;;;;4972172;28;20042;-79
2023/07/10 09:59:01;;;;;;;10.63;3.25;;;40.40;35.60;;;;;;4989601;28;20083;-80
2023/07/10 10:01:30;;;;;;;5.60;3.22;;;40.30;36.70;;;;;;4989738;28;20030;-80
2023/07/10 10:03:56;;;;;;;4.47;3.38;;;40.20;37.10;;;;;;4989386;28;20034;-80
2023/07/10 10:06:27;;;;;;;4.80;3.60;;;40.20;37.80;;;;;;4989331;28;20118;-79
2023/07/10 10:08:54;;;;;;;5.60;3.42;;;39.90;36.20;;;;;;4971317;28;20441;-78
2023/07/10 10:11:43;;;;;;;9.05;3.38;;;39.70;37.20;;;;;;4989302;28;20095;-79
2023/07/10 10:14:15;;;;;;;4.93;4.00;;;39.20;38.90;;;;;;4989328;28;20506;-79
2023/07/10 10:16:50;;;;;;;5.10;3.58;;;38.50;39.10;;;;;;4971870;28;20491;-78
2023/07/10 10:19:19;;;;;;;11.05;4.30;;;38.10;40.60;;;;;;4971876;28;20050;-79
2023/07/10 10:21:45;;;;;;;6.63;3.53;;;37.80;39.80;;;;;;4989409;28;20102;-79
2023/07/10 10:24:12;;;;;;;4.43;3.42;;;37.30;41.00;;;;;;4989348;28;20122;-80
2023/07/10 10:27:00;;;;;;;9.02;3.33;;;37.30;41.30;;;;;;4972218;28;20068;-79
2023/07/10 10:29:47;;;;;;;5.90;3.58;;;37.00;41.00;;;;;;4989096;28;20453;-79
2023/07/10 10:32:25;;;;;;;7.35;3.78;;;36.60;41.10;;;;;;4971443;28;20030;-79
2023/07/10 10:35:10;;;;;;;5.78;3.63;;;36.30;42.30;;;;;;4989049;28;20054;-81
2023/07/10 10:38:10;;;;;;;7.20;3.60;;;36.20;42.20;;;;;;4971572;28;20081;-79
2023/07/10 10:40:48;;;;;;;3.95;3.28;;;35.90;42.30;;;;;;4970881;28;20035;-80
2023/07/10 10:43:33;;;;;;;4.10;2.60;;;35.80;43.00;;;;;;4971425;28;20070;-79
2023/07/10 10:46:14;;;;;;;13.82;3.60;;;35.70;44.00;;;;;;4970601;28;20034;-79
2023/07/10 10:48:58;;;;;;;7.18;3.83;;;35.60;43.80;;;;;;4970632;28;20495;-79
2023/07/10 10:51:26;;;;;;;6.65;3.88;;;35.50;42.10;;;;;;4970654;28;20026;-79
2023/07/10 10:54:13;;;;;;;10.88;3.63;;;35.30;42.70;;;;;;4988118;28;20117;-78
2023/07/10 10:56:51;;;;;;;6.05;3.70;;;35.30;42.80;;;;;;4970952;28;20026;-79
2023/07/10 10:59:51;;;;;;;7.68;3.65;;;35.20;42.80;;;;;;4988730;28;20026;-79
2023/07/10 11:02:39;;;;;;;9.88;3.42;;;35.10;43.20;;;;;;4988280;28;20027;-78
2023/07/10 11:05:34;;;;;;;9.30;3.63;;;35.00;43.40;;;;;;4988535;28;20501;-80
2023/07/10 11:08:05;;;;;;;6.43;3.50;;;35.00;43.40;;;;;;4988793;28;20026;-79
2023/07/10 11:10:36;;;;;;;7.80;3.70;;;35.00;43.80;;;;;;4971210;28;20030;-78
2023/07/10 11:13:13;;;;;;;6.50;3.58;;;34.90;42.90;;;;;;4988704;28;20050;-79
2023/07/10 11:15:39;;;;;;;6.70;3.65;;;34.90;43.40;;;;;;4971037;28;20034;-80
2023/07/10 11:18:05;;;;;;;11.18;3.42;;;34.90;43.80;;;;;;4988318;28;20029;-79
2023/07/10 11:20:31;;;;;;;4.88;3.03;;;34.90;42.60;;;;;;4988436;28;20027;-78
2023/07/10 11:23:00;;;;;;;14.93;3.58;;;35.00;42.40;;;;;;4970921;28;20128;-79
2023/07/10 11:25:39;;;;;;;6.40;3.20;;;35.00;42.70;;;;;;4970773;28;20608;-78
2023/07/10 11:28:20;;;;;;;7.88;3.92;;;35.10;42.10;;;;;;4988176;28;20028;-79
2023/07/10 11:30:46;;;;;;;5.82;3.53;;;35.00;41.80;;;;;;5055547;28;20038;-79
2023/07/10 11:33:29;;;;;;;10.70;3.95;;;34.90;42.20;;;;;;4970776;28;20053;-79
2023/07/10 11:36:14;;;;;;;5.00;3.63;;;35.00;43.40;;;;;;4988185;28;20038;-79
2023/07/10 11:38:55;;;;;;;8.18;3.25;;;34.90;42.70;;;;;;4988030;28;20038;-78
2023/07/10 11:41:37;;;;;;;5.10;3.15;;;35.00;43.20;;;;;;4970827;28;20031;-78
2023/07/10 11:44:33;;;;;;;6.72;3.38;;;34.90;42.10;;;;;;4988264;28;20077;-78
2023/07/10 11:47:04;;;;;;;11.88;4.00;;;34.80;41.40;;;;;;4988229;28;20099;-78
2023/07/10 11:49:40;;;;;;;5.13;4.10;;;34.80;41.80;;;;;;4988444;28;20046;-79
2023/07/10 11:52:18;;;;;;;11.30;3.33;;;34.90;42.50;;;;;;4986717;28;20034;-79
2023/07/10 11:54:49;;;;;;;3.95;3.20;;;34.90;42.20;;;;;;4988355;28;20030;-80
2023/07/10 11:57:22;;;;;;;4.10;2.88;;;34.90;41.20;;;;;;4970369;28;20034;-79
2023/07/10 11:59:53;;;;;;;5.80;2.88;;;34.70;41.00;;;;;;4970562;28;20415;-79
2023/07/10 12:02:39;;;;;;;4.55;2.88;;;34.70;40.20;;;;;;4987416;28;20030;-78
2023/07/10 12:05:25;;;;;;;9.43;3.55;;;34.80;39.80;;;;;;4987697;28;20041;-79
2023/07/10 12:07:51;;;;;;;7.38;2.95;;;34.80;40.90;;;;;;4970184;28;20021;-80
2023/07/10 12:10:17;;;;;;;7.38;3.40;;;34.90;41.80;;;;;;4970121;28;20054;-79
2023/07/10 12:12:43;;;;;;;7.53;3.08;;;34.90;42.30;;;;;;4987791;28;20458;-79
2023/07/10 12:15:10;;;;;;;6.82;2.80;;;34.90;41.80;;;;;;4987668;28;20026;-78
2023/07/10 12:17:38;;;;;;;6.63;3.40;;;35.00;41.90;;;;;;4987559;28;20522;-79
2023/07/10 12:20:18;;;;;;;5.90;2.97;;;35.00;39.00;;;;;;4987525;28;20022;-81
2023/07/10 12:22:44;;;;;;;9.48;3.67;;;35.00;37.70;;;;;;4970098;28;20153;-79
2023/07/10 12:25:13;;;;;;;5.78;3.28;;;34.90;37.50;;;;;;4987447;28;20042;-79
2023/07/10 12:27:39;;;;;;;6.95;3.67;;;34.70;38.00;;;;;;4987765;28;20101;-77
2023/07/10 12:30:16;;;;;;;4.25;3.13;;;34.60;37.90;;;;;;4987071;28;20045;-79
2023/07/10 12:32:42;;;;;;;3.90;3.17;;;34.50;39.30;;;;;;4987234;28;20027;-80
2023/07/10 12:35:23;;;;;;;4.15;2.72;;;34.70;40.10;;;;;;4987439;28;20027;-79
2023/07/10 12:37:49;;;;;;;6.57;3.08;;;34.80;39.80;;;;;;4969692;28;20046;-81
2023/07/10 12:40:17;;;;;;;9.18;3.10;;;34.80;39.10;;;;;;4969599;28;20426;-80
2023/07/10 12:42:44;;;;;;;3.97;2.88;;;34.80;37.60;;;;;;4987063;28;20030;-80
2023/07/10 12:45:18;;;;;;;4.70;3.10;;;34.80;37.90;;;;;;4969447;28;20042;-80
2023/07/10 12:47:54;;;;;;;5.32;3.20;;;34.90;38.60;;;;;;4987116;28;20022;-79
2023/07/10 12:50:35;;;;;;;6.05;3.15;;;34.90;38.30;;;;;;4987183;28;20570;-79
2023/07/10 12:53:04;;;;;;;3.92;2.83;;;34.90;38.00;;;;;;4986965;28;20076;-77
2023/07/10 12:55:34;;;;;;;10.30;2.95;;;34.90;38.30;;;;;;4969613;28;20081;-78
2023/07/10 12:58:03;;;;;;;13.00;2.97;;;34.90;37.20;;;;;;4987543;28;20126;-79